Time;durP1;ratioP1;P1;durP2;ratioP2;P2;SDS_P1;SDS_P2;PMS_P1;PMS_P2;Temp;Humidity;BMP_temperature;BMP_pressure;BME280_temperature;BME280_humidity;BME280_pressure;Samples;Min_cycle;Max_cycle;Signal;HPM_P1;HPM_P2
2022/12/30 00:00:14;;;;;;;19.23;5.30;;;7.20;99.90;;;;;;6238962;23;20019;-68
2022/12/30 00:02:40;;;;;;;19.80;5.53;;;7.10;99.90;;;;;;6241066;23;20333;-68
2022/12/30 00:05:06;;;;;;;22.63;7.22;;;7.10;99.90;;;;;;6239555;23;20087;-69
2022/12/30 00:07:34;;;;;;;19.33;5.80;;;7.10;99.90;;;;;;6241617;22;20438;-68
2022/12/30 00:10:00;;;;;;;23.40;5.82;;;7.10;99.90;;;;;;6241187;22;20012;-68
2022/12/30 00:35:00;;;;;;;;;;;7.00;99.90;;;;;;6241050;23;20024;-68
2022/12/30 00:37:26;;;;;;;16.52;5.25;;;6.90;99.90;;;;;;6240086;22;19912;-68
2022/12/30 00:39:52;;;;;;;17.40;3.00;;;6.90;99.90;;;;;;6238669;23;20319;-68
2022/12/30 00:45:02;;;;;;;19.63;5.57;;;6.90;99.90;;;;;;6240702;23;20438;-69
2022/12/30 00:47:28;;;;;;;21.58;5.32;;;6.80;99.90;;;;;;6239434;23;20016;-68
2022/12/30 00:58:06;;;;;;;16.85;5.38;;;6.80;99.90;;;;;;6236244;23;20020;-68
2022/12/30 01:00:32;;;;;;;20.85;5.20;;;6.70;99.90;;;;;;6240877;23;20012;-68
2022/12/30 01:02:57;;;;;;;18.13;5.13;;;6.70;99.90;;;;;;6240828;23;20043;-68
2022/12/30 01:05:23;;;;;;;12.23;3.17;;;6.70;99.90;;;;;;6240977;23;20676;-69
2022/12/30 01:07:48;;;;;;;15.98;2.88;;;6.70;99.90;;;;;;6240884;23;20046;-69
2022/12/30 01:10:14;;;;;;;20.73;5.30;;;6.70;99.90;;;;;;6240002;23;20017;-68
2022/12/30 01:12:40;;;;;;;21.00;5.35;;;6.70;99.90;;;;;;6239795;22;20082;-68
2022/12/30 01:15:06;;;;;;;15.65;4.97;;;6.70;99.90;;;;;;6239605;23;20455;-68
2022/12/30 01:17:33;;;;;;;14.18;2.70;;;6.70;99.90;;;;;;6240518;23;20016;-68
2022/12/30 01:19:59;;;;;;;14.75;4.43;;;6.60;99.90;;;;;;6239525;23;20393;-68
2022/12/30 01:22:25;;;;;;;14.88;4.68;;;6.60;99.90;;;;;;6239766;22;20380;-68
2022/12/30 01:24:51;;;;;;;19.77;5.47;;;6.60;99.90;;;;;;6240210;22;20345;-68
2022/12/30 01:27:16;;;;;;;15.23;3.63;;;6.60;99.90;;;;;;6239495;23;20044;-68
2022/12/30 01:29:43;;;;;;;15.50;5.35;;;6.60;99.90;;;;;;6240359;22;20330;-68
2022/12/30 01:32:15;;;;;;;16.92;5.18;;;6.60;99.90;;;;;;6238961;22;20016;-68
2022/12/30 01:34:40;;;;;;;17.73;4.65;;;6.60;99.90;;;;;;6240188;22;20019;-68
2022/12/30 01:37:06;;;;;;;17.27;4.80;;;6.60;99.90;;;;;;6237866;23;20020;-68
2022/12/30 01:39:32;;;;;;;19.52;5.15;;;6.60;99.90;;;;;;6240903;22;20020;-68
2022/12/30 01:41:58;;;;;;;18.33;3.35;;;6.60;99.90;;;;;;6239773;22;20014;-68
2022/12/30 01:44:48;;;;;;;17.38;3.08;;;6.60;99.90;;;;;;6240710;23;20099;-69
2022/12/30 01:47:29;;;;;;;12.77;2.92;;;6.50;99.90;;;;;;6240404;23;20014;-69
2022/12/30 01:50:15;;;;;;;15.67;2.67;;;6.50;99.90;;;;;;6238583;23;20078;-68
2022/12/30 01:52:52;;;;;;;18.20;4.82;;;6.50;99.90;;;;;;6239500;23;20016;-68
2022/12/30 01:55:28;;;;;;;16.65;4.78;;;6.50;99.90;;;;;;6239367;22;20023;-69
2022/12/30 01:57:56;;;;;;;11.65;2.90;;;6.60;99.90;;;;;;6240444;22;20016;-68
2022/12/30 02:00:22;;;;;;;16.20;4.57;;;6.50;99.90;;;;;;6240108;22;20020;-68
2022/12/30 02:02:48;;;;;;;19.17;5.57;;;6.50;99.90;;;;;;6237926;23;20009;-68
2022/12/30 02:05:15;;;;;;;19.75;5.25;;;6.50;99.90;;;;;;6239766;22;20015;-69
2022/12/30 02:07:48;;;;;;;13.85;2.97;;;6.50;99.90;;;;;;6237771;23;20020;-68
2022/12/30 02:10:15;;;;;;;13.30;2.90;;;6.50;99.90;;;;;;6238600;22;20012;-68
2022/12/30 02:12:40;;;;;;;17.48;5.40;;;6.50;99.90;;;;;;6240721;22;20058;-69
2022/12/30 02:15:07;;;;;;;19.38;5.35;;;6.50;99.90;;;;;;6237493;23;20030;-69
2022/12/30 02:18:00;;;;;;;18.23;5.43;;;6.50;99.90;;;;;;6238266;23;20012;-68
2022/12/30 02:20:58;;;;;;;19.65;3.00;;;6.50;99.90;;;;;;6238486;23;20062;-68
2022/12/30 02:23:57;;;;;;;14.38;2.88;;;6.40;99.90;;;;;;6238930;22;20055;-68
2022/12/30 02:26:54;;;;;;;14.60;3.97;;;6.40;99.90;;;;;;6238036;23;20023;-69
2022/12/30 02:29:36;;;;;;;16.88;5.32;;;6.40;99.90;;;;;;6232697;23;20043;-68
2022/12/30 02:32:33;;;;;;;20.00;5.43;;;6.40;99.90;;;;;;6239932;23;20752;-68
2022/12/30 02:35:18;;;;;;;19.60;5.43;;;6.40;99.90;;;;;;6238004;23;20334;-68
2022/12/30 02:38:27;;;;;;;20.92;5.40;;;6.40;99.90;;;;;;6238652;23;20035;-68
2022/12/30 02:47:06;;;;;;;16.00;4.70;;;6.30;99.90;;;;;;6240093;23;20238;-68
2022/12/30 02:49:35;;;;;;;19.23;5.20;;;6.30;99.90;;;;;;6238548;23;20026;-68
2022/12/30 02:52:14;;;;;;;19.13;5.25;;;6.30;99.90;;;;;;6238203;23;20095;-68
2022/12/30 02:54:46;;;;;;;15.25;3.28;;;6.30;99.90;;;;;;6238835;22;20036;-68
2022/12/30 02:57:30;;;;;;;14.98;2.95;;;6.30;99.90;;;;;;6238039;23;20032;-69
2022/12/30 03:06:22;;;;;;;13.00;2.57;;;6.20;99.90;;;;;;6239123;23;20031;-69
2022/12/30 03:08:52;;;;;;;13.02;3.08;;;6.20;99.90;;;;;;6238174;23;20027;-68
2022/12/30 03:11:19;;;;;;;17.48;4.88;;;6.20;99.90;;;;;;6239378;22;20325;-68
2022/12/30 03:13:51;;;;;;;16.42;2.75;;;6.20;99.90;;;;;;6239223;22;20012;-68
2022/12/30 03:16:25;;;;;;;17.50;4.78;;;6.10;99.90;;;;;;6239106;22;20020;-68
2022/12/30 03:18:53;;;;;;;17.50;5.18;;;6.10;99.90;;;;;;6238747;22;20369;-68
2022/12/30 03:21:23;;;;;;;19.63;5.60;;;6.10;99.90;;;;;;6237424;23;20058;-68
2022/12/30 03:29:31;;;;;;;14.80;5.43;;;6.10;99.90;;;;;;6238865;23;20024;-69
2022/12/30 03:31:57;;;;;;;13.82;3.20;;;6.10;99.90;;;;;;6239295;22;20058;-68
2022/12/30 03:34:24;;;;;;;16.75;4.90;;;6.00;99.90;;;;;;6238057;23;20333;-69
2022/12/30 03:36:54;;;;;;;11.38;2.67;;;6.00;99.90;;;;;;6237790;22;20008;-69
2022/12/30 03:39:27;;;;;;;16.25;5.63;;;6.00;99.90;;;;;;6239405;22;20428;-68
2022/12/30 03:41:53;;;;;;;12.05;3.83;;;6.00;99.90;;;;;;6236819;23;20016;-68
2022/12/30 03:44:21;;;;;;;9.63;2.35;;;6.00;99.90;;;;;;6239058;22;20013;-68
2022/12/30 03:46:47;;;;;;;17.02;5.07;;;6.00;99.90;;;;;;6236915;23;20016;-68
2022/12/30 03:49:14;;;;;;;14.80;5.20;;;6.00;99.90;;;;;;6239198;22;20008;-68
2022/12/30 03:51:40;;;;;;;18.65;5.50;;;6.00;99.90;;;;;;6238002;22;20054;-68
2022/12/30 03:54:05;;;;;;;14.63;5.03;;;6.00;99.90;;;;;;6235835;23;20020;-68
2022/12/30 03:56:31;;;;;;;12.82;2.63;;;6.00;99.90;;;;;;6239375;23;20055;-68
2022/12/30 03:58:56;;;;;;;10.05;2.30;;;6.00;99.90;;;;;;6237422;23;20016;-68
2022/12/30 04:01:22;;;;;;;16.80;5.30;;;5.90;99.90;;;;;;6238723;23;20433;-68
2022/12/30 04:03:48;;;;;;;18.88;5.30;;;5.90;99.90;;;;;;6238506;23;20089;-68
2022/12/30 04:06:13;;;;;;;13.32;2.75;;;5.90;99.90;;;;;;6238475;23;20078;-68
2022/12/30 04:08:39;;;;;;;9.90;2.40;;;5.90;99.90;;;;;;6237662;23;20052;-69
2022/12/30 04:11:05;;;;;;;16.45;5.13;;;5.80;99.90;;;;;;6238566;23;20020;-68
2022/12/30 04:13:31;;;;;;;8.73;2.55;;;5.80;99.90;;;;;;6239434;22;20031;-69
2022/12/30 04:15:56;;;;;;;13.63;3.10;;;5.80;99.90;;;;;;6238053;23;20437;-68
2022/12/30 04:18:22;;;;;;;17.17;5.32;;;5.80;99.90;;;;;;6239359;23;20017;-69
2022/12/30 04:20:48;;;;;;;16.10;5.18;;;5.80;99.90;;;;;;6236854;23;20091;-69
2022/12/30 04:23:14;;;;;;;16.48;3.67;;;5.80;99.90;;;;;;6233348;22;20058;-68
2022/12/30 04:25:40;;;;;;;11.25;2.42;;;5.80;99.90;;;;;;6239777;22;20013;-68
2022/12/30 04:28:05;;;;;;;11.88;2.42;;;5.70;99.90;;;;;;6238371;23;20034;-68
2022/12/30 04:30:32;;;;;;;15.55;5.47;;;5.70;99.90;;;;;;6237679;23;20058;-68
2022/12/30 04:32:57;;;;;;;10.60;3.55;;;5.70;99.90;;;;;;6239483;22;20016;-68
2022/12/30 04:35:23;;;;;;;10.55;2.33;;;5.70;99.90;;;;;;6237102;23;20051;-68
2022/12/30 04:37:49;;;;;;;12.75;3.17;;;5.70;99.90;;;;;;6238556;23;20388;-68
2022/12/30 04:40:16;;;;;;;14.02;4.93;;;5.60;99.90;;;;;;6239872;22;20364;-69
2022/12/30 04:42:41;;;;;;;9.77;2.63;;;5.70;99.90;;;;;;6240781;22;20031;-69
2022/12/30 04:45:08;;;;;;;14.85;5.38;;;5.60;99.90;;;;;;6238720;23;20016;-69
2022/12/30 04:47:33;;;;;;;13.93;2.70;;;5.60;99.90;;;;;;6241357;23;20083;-68
2022/12/30 04:49:59;;;;;;;8.20;2.33;;;5.60;99.90;;;;;;6239979;23;20035;-68
2022/12/30 04:52:24;;;;;;;15.57;5.22;;;5.60;99.90;;;;;;6240770;23;20077;-68
2022/12/30 04:54:50;;;;;;;9.13;2.80;;;5.60;99.90;;;;;;6239502;23;20499;-68
2022/12/30 04:57:16;;;;;;;13.07;4.82;;;5.60;99.90;;;;;;6240995;23;20012;-69
2022/12/30 04:59:41;;;;;;;11.80;3.20;;;5.60;99.90;;;;;;6240431;23;20057;-68
2022/12/30 05:02:07;;;;;;;10.98;3.55;;;5.60;99.90;;;;;;6240169;23;20027;-68
2022/12/30 05:04:32;;;;;;;11.85;2.90;;;5.60;99.90;;;;;;6238572;23;20012;-68
2022/12/30 05:06:58;;;;;;;14.95;5.07;;;5.50;99.90;;;;;;6240644;23;20012;-68
2022/12/30 05:09:23;;;;;;;9.93;2.72;;;5.50;99.90;;;;;;6240404;23;20023;-68
2022/12/30 05:11:49;;;;;;;11.77;3.38;;;5.50;99.90;;;;;;6240742;23;20012;-69
2022/12/30 05:14:15;;;;;;;12.43;2.58;;;5.50;99.90;;;;;;6239167;23;20341;-69
2022/12/30 05:16:40;;;;;;;13.73;5.05;;;5.50;99.90;;;;;;6240975;23;20502;-68
2022/12/30 05:19:06;;;;;;;13.57;5.13;;;5.50;99.90;;;;;;6238005;23;20024;-68
2022/12/30 05:21:32;;;;;;;10.43;2.50;;;5.50;99.90;;;;;;6241421;23;20083;-68
2022/12/30 05:26:41;;;;;;;12.45;4.82;;;5.50;99.90;;;;;;6244703;22;20011;-69
2022/12/30 05:29:07;;;;;;;10.70;2.70;;;5.50;99.90;;;;;;6243295;22;20019;-68
2022/12/30 05:31:32;;;;;;;10.40;2.95;;;5.50;99.90;;;;;;6244920;22;20012;-68
2022/12/30 05:33:58;;;;;;;9.18;2.65;;;5.50;99.90;;;;;;6270606;22;20016;-69
2022/12/30 05:36:23;;;;;;;11.93;2.83;;;5.40;99.90;;;;;;6271418;22;20133;-69
2022/12/30 05:38:49;;;;;;;16.35;5.00;;;5.40;99.90;;;;;;6244216;22;20069;-69
2022/12/30 05:41:15;;;;;;;9.98;2.92;;;5.40;99.90;;;;;;6271060;22;20024;-69
2022/12/30 05:43:40;;;;;;;17.25;4.45;;;5.40;99.90;;;;;;6271754;22;20015;-68
2022/12/30 05:46:06;;;;;;;13.57;2.67;;;5.40;99.90;;;;;;6270658;22;20399;-68
2022/12/30 05:48:31;;;;;;;10.93;2.80;;;5.40;99.90;;;;;;6271014;22;20019;-68
2022/12/30 05:50:57;;;;;;;11.63;3.17;;;5.40;99.90;;;;;;6243725;22;20026;-68
2022/12/30 05:53:22;;;;;;;10.25;2.70;;;5.30;99.90;;;;;;6270351;22;20035;-68
2022/12/30 05:55:48;;;;;;;15.02;4.10;;;5.30;99.90;;;;;;6244005;22;20039;-68
2022/12/30 05:58:14;;;;;;;11.38;2.28;;;5.30;99.90;;;;;;6271189;22;20016;-69
2022/12/30 06:00:39;;;;;;;14.65;5.00;;;5.30;99.90;;;;;;6271244;22;20436;-69
2022/12/30 06:03:05;;;;;;;12.23;3.00;;;5.30;99.90;;;;;;6269460;22;20062;-68
2022/12/30 06:05:30;;;;;;;13.05;2.58;;;5.30;99.90;;;;;;6271133;22;20016;-68
2022/12/30 06:07:56;;;;;;;17.20;5.03;;;5.30;99.90;;;;;;6270754;22;20003;-69
2022/12/30 06:10:22;;;;;;;13.20;3.60;;;5.30;99.90;;;;;;6243599;22;20026;-68
2022/12/30 06:12:47;;;;;;;14.60;3.00;;;5.30;99.90;;;;;;6270993;22;20367;-68
2022/12/30 06:15:13;;;;;;;8.18;2.45;;;5.30;99.90;;;;;;6271387;22;20038;-68
2022/12/30 06:17:38;;;;;;;9.75;2.38;;;5.30;99.90;;;;;;6270436;22;20103;-68
2022/12/30 06:20:05;;;;;;;12.80;3.15;;;5.20;99.90;;;;;;6271070;22;20023;-68
2022/12/30 06:22:30;;;;;;;15.93;4.22;;;5.20;99.90;;;;;;6218355;22;20122;-68
2022/12/30 06:24:56;;;;;;;8.02;2.58;;;5.20;99.90;;;;;;6271253;22;20513;-69
2022/12/30 06:27:22;;;;;;;12.50;2.40;;;5.20;99.90;;;;;;6244293;22;20015;-68
2022/12/30 06:29:48;;;;;;;9.80;2.33;;;5.20;99.90;;;;;;6213949;23;20329;-68
2022/12/30 06:32:14;;;;;;;13.90;4.28;;;5.20;99.90;;;;;;6212919;23;20091;-69
2022/12/30 06:34:39;;;;;;;11.27;2.50;;;5.20;99.90;;;;;;6213426;23;20054;-69
2022/12/30 06:37:05;;;;;;;10.57;3.08;;;5.20;99.90;;;;;;6212555;23;20340;-68
2022/12/30 06:39:31;;;;;;;16.08;4.78;;;5.10;99.90;;;;;;6240028;23;20043;-69
2022/12/30 06:41:56;;;;;;;14.63;3.33;;;5.20;99.90;;;;;;6239745;23;20434;-69
2022/12/30 06:44:22;;;;;;;10.30;2.65;;;5.20;99.90;;;;;;6239987;23;20016;-69
2022/12/30 06:46:47;;;;;;;10.82;2.85;;;5.20;99.90;;;;;;6238707;23;20019;-68
2022/12/30 06:49:13;;;;;;;9.85;2.97;;;5.10;99.90;;;;;;6239375;23;20332;-68
2022/12/30 06:51:39;;;;;;;15.23;4.20;;;5.10;99.90;;;;;;6236096;23;20050;-68
2022/12/30 06:54:05;;;;;;;11.93;2.75;;;5.10;99.90;;;;;;6239275;23;20016;-69
2022/12/30 06:56:30;;;;;;;13.38;3.17;;;5.10;99.90;;;;;;6240082;23;20070;-68
2022/12/30 06:58:56;;;;;;;12.80;4.05;;;5.10;99.90;;;;;;6238732;23;20024;-69
2022/12/30 07:01:22;;;;;;;11.30;2.58;;;5.10;99.90;;;;;;6239651;23;20012;-69
2022/12/30 07:03:47;;;;;;;9.82;2.88;;;5.10;99.90;;;;;;6240057;23;20012;-69
2022/12/30 07:06:13;;;;;;;15.32;4.95;;;5.10;99.90;;;;;;6239420;23;20039;-69
2022/12/30 07:08:38;;;;;;;9.65;2.83;;;5.10;99.90;;;;;;6213299;23;20047;-69
2022/12/30 07:11:04;;;;;;;17.65;3.22;;;5.00;99.90;;;;;;6211931;23;20074;-68
2022/12/30 07:13:30;;;;;;;10.52;2.55;;;5.00;99.90;;;;;;6237803;23;20016;-68
2022/12/30 07:15:55;;;;;;;11.55;3.20;;;5.00;99.90;;;;;;6239704;23;20080;-69
2022/12/30 07:18:21;;;;;;;14.02;3.42;;;5.00;99.90;;;;;;6240144;23;20389;-69
2022/12/30 07:20:46;;;;;;;14.07;3.22;;;5.00;99.90;;;;;;6240002;23;20051;-68
2022/12/30 07:23:12;;;;;;;15.15;4.18;;;5.00;99.90;;;;;;6213291;23;20012;-69
2022/12/30 07:25:38;;;;;;;12.10;3.35;;;5.00;99.90;;;;;;6212005;22;20012;-69
2022/12/30 07:28:04;;;;;;;7.75;2.13;;;5.00;99.90;;;;;;6211721;23;20739;-69
2022/12/30 07:30:31;;;;;;;13.45;3.13;;;5.00;99.90;;;;;;6239553;23;20087;-69
2022/12/30 07:32:57;;;;;;;14.27;4.45;;;5.00;99.90;;;;;;6212319;23;20016;-68
2022/12/30 07:35:23;;;;;;;14.40;3.25;;;5.00;99.90;;;;;;6212064;23;20012;-68
2022/12/30 07:37:52;;;;;;;13.10;3.08;;;5.00;99.90;;;;;;6212477;23;20023;-69
2022/12/30 07:40:17;;;;;;;9.75;2.80;;;5.00;99.90;;;;;;6238731;23;20020;-68
2022/12/30 07:42:43;;;;;;;10.13;2.83;;;5.00;99.90;;;;;;6236146;23;20031;-68
2022/12/30 07:45:09;;;;;;;16.00;3.60;;;5.00;99.90;;;;;;6235645;23;20016;-68
2022/12/30 07:47:36;;;;;;;13.90;3.95;;;5.00;99.90;;;;;;6209120;23;20027;-68
2022/12/30 07:50:03;;;;;;;12.68;3.03;;;5.00;99.90;;;;;;6211749;23;20013;-68
2022/12/30 07:52:29;;;;;;;14.75;3.00;;;5.00;99.90;;;;;;6238136;23;20043;-69
2022/12/30 07:54:54;;;;;;;11.63;3.00;;;5.00;99.90;;;;;;6239068;23;20012;-69
2022/12/30 07:57:20;;;;;;;10.35;2.60;;;5.00;99.90;;;;;;6209386;23;20241;-69
2022/12/30 07:59:45;;;;;;;12.90;4.50;;;5.00;99.90;;;;;;6211415;23;20027;-68
2022/12/30 08:02:11;;;;;;;12.23;2.63;;;5.00;99.90;;;;;;6238883;23;20020;-68
2022/12/30 08:04:37;;;;;;;12.32;2.92;;;5.00;99.90;;;;;;6212974;23;20019;-68
2022/12/30 08:07:03;;;;;;;11.18;2.58;;;5.00;99.90;;;;;;6186577;23;20016;-68
2022/12/30 08:09:29;;;;;;;11.38;2.97;;;5.00;99.90;;;;;;6212120;23;20015;-68
2022/12/30 08:11:54;;;;;;;13.43;4.28;;;5.00;99.90;;;;;;6238319;23;20009;-69
2022/12/30 08:14:20;;;;;;;13.50;3.50;;;5.00;99.90;;;;;;6238850;23;20012;-68
2022/12/30 08:16:45;;;;;;;14.23;2.80;;;5.00;99.90;;;;;;6210840;23;20485;-68
2022/12/30 08:19:11;;;;;;;9.77;2.42;;;5.00;99.90;;;;;;6238155;23;20099;-68
2022/12/30 08:21:37;;;;;;;16.23;4.65;;;5.00;99.90;;;;;;6211924;23;20008;-68
2022/12/30 08:24:03;;;;;;;16.88;4.13;;;5.00;99.90;;;;;;6240525;23;20008;-68
2022/12/30 08:26:29;;;;;;;15.18;4.28;;;5.00;99.90;;;;;;6239745;22;20471;-69
2022/12/30 08:28:54;;;;;;;12.50;2.83;;;5.10;99.90;;;;;;6240479;23;20058;-69
2022/12/30 08:31:26;;;;;;;10.65;2.42;;;5.10;99.90;;;;;;6239620;23;20004;-68
2022/12/30 08:33:52;;;;;;;11.52;4.43;;;5.10;99.90;;;;;;6239991;23;20062;-69
2022/12/30 08:36:21;;;;;;;11.70;3.13;;;5.10;99.90;;;;;;6241332;23;20009;-69
2022/12/30 08:38:49;;;;;;;14.00;3.25;;;5.10;99.90;;;;;;6213694;23;20027;-69
2022/12/30 08:41:18;;;;;;;15.30;4.55;;;5.10;99.90;;;;;;6212929;23;20130;-69
2022/12/30 08:43:44;;;;;;;12.73;2.97;;;5.10;99.90;;;;;;6241371;23;20752;-68
2022/12/30 08:46:10;;;;;;;14.52;4.57;;;5.20;99.90;;;;;;6214245;23;20016;-69
2022/12/30 08:48:36;;;;;;;10.60;3.33;;;5.20;99.90;;;;;;6240612;23;20019;-69
2022/12/30 08:51:01;;;;;;;10.98;3.25;;;5.20;99.90;;;;;;6241226;23;20058;-69
2022/12/30 08:53:27;;;;;;;12.82;3.58;;;5.20;99.90;;;;;;6241035;23;20008;-68
2022/12/30 08:56:08;;;;;;;12.02;3.30;;;5.20;99.90;;;;;;6240324;23;20012;-69
2022/12/30 08:58:34;;;;;;;12.35;2.40;;;5.30;99.90;;;;;;6240208;23;20066;-69
2022/12/30 09:01:06;;;;;;;9.02;2.70;;;5.30;99.90;;;;;;6241325;23;20051;-69
2022/12/30 09:03:32;;;;;;;11.93;3.47;;;5.30;99.90;;;;;;6241369;23;20012;-69
2022/12/30 09:05:57;;;;;;;16.88;5.40;;;5.40;99.90;;;;;;6213472;23;20016;-69
2022/12/30 09:08:23;;;;;;;13.40;3.35;;;5.40;99.90;;;;;;6240413;23;20016;-69
2022/12/30 09:11:03;;;;;;;10.05;2.88;;;5.40;99.90;;;;;;6237872;23;20020;-69
2022/12/30 09:13:29;;;;;;;12.65;3.55;;;5.40;99.90;;;;;;6239923;23;20018;-68
2022/12/30 09:15:55;;;;;;;13.07;3.67;;;5.50;99.90;;;;;;6239503;23;20062;-68
2022/12/30 09:18:21;;;;;;;14.27;5.10;;;5.50;99.90;;;;;;6239948;23;20051;-68
2022/12/30 09:20:47;;;;;;;13.98;3.72;;;5.50;99.90;;;;;;6239681;23;20015;-69
2022/12/30 09:23:12;;;;;;;15.13;3.42;;;5.60;99.90;;;;;;6212893;23;20016;-68
2022/12/30 09:25:38;;;;;;;14.80;4.70;;;5.60;99.90;;;;;;6239837;22;20035;-69
2022/12/30 09:28:04;;;;;;;14.10;4.50;;;5.60;99.90;;;;;;6239938;23;20435;-69
2022/12/30 09:30:30;;;;;;;11.52;2.85;;;5.70;99.90;;;;;;6240467;23;20429;-69
2022/12/30 09:32:55;;;;;;;12.98;2.70;;;5.70;99.90;;;;;;6239885;23;20012;-69
2022/12/30 09:35:21;;;;;;;11.05;2.50;;;5.70;99.90;;;;;;6185704;23;20008;-69
2022/12/30 09:37:46;;;;;;;15.55;4.40;;;5.70;99.90;;;;;;6208263;23;20444;-69
2022/12/30 09:40:19;;;;;;;12.27;3.17;;;5.80;99.90;;;;;;6212973;23;20024;-69
2022/12/30 09:45:52;;;;;;;12.13;4.00;;;5.80;99.90;;;;;;6241237;23;20043;-70
2022/12/30 09:48:24;;;;;;;13.00;3.30;;;5.90;99.90;;;;;;6240765;23;20079;-69
2022/12/30 09:51:02;;;;;;;13.55;3.08;;;5.90;99.90;;;;;;6213239;23;20008;-70
2022/12/30 09:53:58;;;;;;;13.95;2.97;;;5.90;99.90;;;;;;6212207;23;20070;-70
2022/12/30 09:56:33;;;;;;;11.45;3.80;;;6.00;99.90;;;;;;6240183;23;20023;-70
2022/12/30 09:59:05;;;;;;;12.38;3.70;;;6.00;99.90;;;;;;6211625;23;20031;-70
2022/12/30 10:01:45;;;;;;;10.93;2.58;;;6.10;99.90;;;;;;6213900;23;20172;-70
2022/12/30 10:04:16;;;;;;;10.45;2.15;;;6.10;99.90;;;;;;6237832;23;20348;-70
2022/12/30 10:07:02;;;;;;;14.70;4.38;;;6.10;99.90;;;;;;6240541;23;20008;-70
2022/12/30 10:09:55;;;;;;;11.43;3.85;;;6.10;99.90;;;;;;6239369;23;20009;-71
2022/12/30 10:12:32;;;;;;;13.45;4.10;;;6.20;99.90;;;;;;6187894;23;20023;-70
2022/12/30 10:15:33;;;;;;;9.38;2.55;;;6.20;99.90;;;;;;6239176;23;20012;-70
2022/12/30 10:18:27;;;;;;;13.63;3.53;;;6.30;99.90;;;;;;6212231;23;20020;-70
2022/12/30 10:24:53;;;;;;;10.07;2.53;;;6.60;99.90;;;;;;5148454;27;20348;-81
2022/12/30 10:27:21;;;;;;;12.63;2.37;;;6.70;99.90;;;;;;5125740;27;20047;-82
2022/12/30 10:29:46;;;;;;;14.07;3.85;;;6.70;99.90;;;;;;5143336;27;20297;-84
2022/12/30 10:32:17;;;;;;;11.75;3.05;;;6.70;99.90;;;;;;5109583;27;20027;-84
2022/12/30 10:34:45;;;;;;;11.13;3.58;;;6.80;99.90;;;;;;5123877;27;20069;-84
2022/12/30 10:37:23;;;;;;;10.60;3.40;;;6.80;99.90;;;;;;5105260;27;20043;-84
2022/12/30 10:39:51;;;;;;;10.48;3.38;;;6.90;99.90;;;;;;5122800;27;20429;-83
2022/12/30 10:42:26;;;;;;;11.57;3.72;;;7.00;99.90;;;;;;5125527;27;20043;-83
2022/12/30 10:45:10;;;;;;;11.68;3.55;;;7.00;99.90;;;;;;5125562;27;20035;-84
2022/12/30 10:47:51;;;;;;;11.40;3.20;;;7.00;99.90;;;;;;5123951;27;20038;-81
2022/12/30 10:50:35;;;;;;;9.57;3.33;;;7.10;99.90;;;;;;5144461;27;20031;-81
2022/12/30 10:53:02;;;;;;;7.75;2.35;;;7.10;99.90;;;;;;5116335;27;20047;-81
2022/12/30 10:55:31;;;;;;;11.38;3.45;;;7.10;99.90;;;;;;5122004;27;20188;-82
2022/12/30 10:58:04;;;;;;;12.60;3.25;;;7.20;99.90;;;;;;5122328;27;21255;-82
2022/12/30 11:00:39;;;;;;;10.10;3.20;;;7.20;99.90;;;;;;5144602;27;20035;-84
2022/12/30 11:03:35;;;;;;;11.55;3.25;;;7.20;99.90;;;;;;5124341;27;20210;-82
2022/12/30 11:06:20;;;;;;;10.00;3.13;;;7.20;99.90;;;;;;5138650;27;20122;-83
2022/12/30 11:08:45;;;;;;;10.88;3.60;;;7.30;99.90;;;;;;5142619;27;20037;-85
2022/12/30 11:11:11;;;;;;;11.85;3.10;;;7.30;99.90;;;;;;5130412;27;20039;-85
2022/12/30 11:16:42;;;;;;;10.70;2.85;;;7.40;99.90;;;;;;5123817;27;20050;-86
2022/12/30 11:19:23;;;;;;;10.27;2.85;;;7.40;99.90;;;;;;5140564;27;20057;-86
2022/12/30 11:21:53;;;;;;;8.68;2.95;;;7.50;99.90;;;;;;5126163;27;20065;-85
2022/12/30 11:24:21;;;;;;;9.75;4.30;;;7.50;99.90;;;;;;5126130;27;20065;-84
2022/12/30 11:26:48;;;;;;;8.52;2.55;;;7.60;99.90;;;;;;5106265;27;20063;-82
2022/12/30 11:29:19;;;;;;;11.07;3.10;;;7.60;99.90;;;;;;5143785;27;20410;-86
2022/12/30 11:31:50;;;;;;;10.00;3.17;;;7.60;99.90;;;;;;5128234;27;20031;-84
2022/12/30 11:34:24;;;;;;;9.55;3.90;;;7.70;99.90;;;;;;5122401;27;20411;-84
2022/12/30 11:36:50;;;;;;;8.93;2.78;;;7.70;99.90;;;;;;5114006;27;20039;-89
2022/12/30 11:39:15;;;;;;;10.35;2.85;;;7.70;99.90;;;;;;5112033;27;20046;-86
2022/12/30 11:41:58;;;;;;;9.18;2.92;;;7.70;99.90;;;;;;5130984;27;20039;-89
2022/12/30 11:44:32;;;;;;;12.35;3.33;;;7.80;99.90;;;;;;5111834;27;20088;-85
2022/12/30 11:47:05;;;;;;;8.68;2.67;;;7.80;99.90;;;;;;5092611;27;20039;-85
2022/12/30 11:49:36;;;;;;;10.10;2.80;;;7.80;99.90;;;;;;5110813;27;20110;-85
2022/12/30 11:52:26;;;;;;;9.73;2.88;;;7.90;99.90;;;;;;5113225;27;20517;-87
2022/12/30 11:55:03;;;;;;;8.38;2.88;;;7.90;99.90;;;;;;5111131;27;20046;-84
2022/12/30 11:57:37;;;;;;;12.65;5.88;;;7.90;99.90;;;;;;5095681;27;20031;-85
2022/12/30 12:00:05;;;;;;;9.27;2.65;;;7.90;99.90;;;;;;5126533;27;20372;-86
2022/12/30 12:02:35;;;;;;;88.63;75.80;;;7.90;99.90;;;;;;5121987;27;20035;-85
2022/12/30 12:05:03;;;;;;;406.83;363.70;;;8.00;99.90;;;;;;5113405;27;20045;-87
2022/12/30 12:07:45;;;;;;;11.70;6.45;;;8.00;99.90;;;;;;5118400;27;20103;-86
2022/12/30 12:10:28;;;;;;;9.25;3.42;;;8.00;99.90;;;;;;5104522;27;20065;-84
2022/12/30 12:12:58;;;;;;;8.85;2.85;;;8.00;99.90;;;;;;5143029;27;20046;-84
2022/12/30 12:15:45;;;;;;;7.17;2.43;;;8.00;99.90;;;;;;5112544;27;20054;-85
2022/12/30 12:18:25;;;;;;;9.68;3.10;;;8.10;99.90;;;;;;5127883;27;20034;-85
2022/12/30 12:21:10;;;;;;;7.85;2.60;;;8.10;99.90;;;;;;5094069;27;20050;-85
2022/12/30 12:23:54;;;;;;;9.57;2.75;;;8.10;99.90;;;;;;5108896;27;20121;-84
2022/12/30 12:26:31;;;;;;;8.00;2.80;;;8.10;99.90;;;;;;5110038;27;20122;-84
2022/12/30 12:29:00;;;;;;;9.93;2.72;;;8.20;99.90;;;;;;5103416;27;20031;-84
2022/12/30 12:31:32;;;;;;;7.72;2.60;;;8.20;99.90;;;;;;5093563;27;20058;-83
2022/12/30 12:34:00;;;;;;;8.57;2.47;;;8.20;99.90;;;;;;5111865;27;20117;-84
2022/12/30 12:36:57;;;;;;;8.07;2.60;;;8.20;99.90;;;;;;5094143;27;20046;-85
2022/12/30 12:39:44;;;;;;;7.28;2.50;;;8.30;99.90;;;;;;5110830;27;20047;-82
2022/12/30 12:42:21;;;;;;;9.85;2.83;;;8.30;99.90;;;;;;5109472;27;20466;-86
2022/12/30 12:44:49;;;;;;;9.43;2.58;;;8.30;99.90;;;;;;5106231;27;20080;-84
2022/12/30 12:47:52;;;;;;;8.70;2.88;;;8.30;99.90;;;;;;5108385;27;20123;-87
2022/12/30 12:50:40;;;;;;;8.65;2.40;;;8.40;99.90;;;;;;5125461;27;20118;-83
2022/12/30 12:53:48;;;;;;;8.85;2.78;;;8.40;99.90;;;;;;5106623;27;20044;-84
2022/12/30 12:56:39;;;;;;;7.45;2.03;;;8.40;99.90;;;;;;5097818;27;20135;-83
2022/12/30 12:59:19;;;;;;;8.38;2.63;;;8.50;99.90;;;;;;5107732;27;20384;-85
2022/12/30 13:01:59;;;;;;;11.00;2.67;;;8.60;99.90;;;;;;5109506;27;20047;-85
2022/12/30 13:04:41;;;;;;;8.13;2.70;;;8.60;99.90;;;;;;5091039;27;20091;-87
2022/12/30 13:07:44;;;;;;;10.30;2.78;;;8.60;99.90;;;;;;5107045;27;20114;-82
2022/12/30 13:10:16;;;;;;;10.88;2.60;;;8.60;99.90;;;;;;5108732;27;20035;-85
2022/12/30 13:12:49;;;;;;;9.48;2.38;;;8.60;99.90;;;;;;5110305;27;20039;-83
2022/12/30 13:15:21;;;;;;;10.23;2.30;;;8.70;99.90;;;;;;5126167;27;20415;-83
2022/12/30 13:17:49;;;;;;;6.95;1.95;;;8.70;99.90;;;;;;5110182;27;20074;-82
2022/12/30 13:20:18;;;;;;;8.52;2.17;;;8.70;99.90;;;;;;5125319;27;20043;-84
2022/12/30 13:22:45;;;;;;;7.47;2.22;;;8.70;99.90;;;;;;5129335;27;20145;-84
2022/12/30 13:25:15;;;;;;;10.25;2.10;;;8.70;99.90;;;;;;5128365;27;20035;-82
2022/12/30 13:27:45;;;;;;;9.50;2.58;;;8.70;99.90;;;;;;5127716;27;20078;-84
2022/12/30 13:30:20;;;;;;;6.43;1.67;;;8.80;99.90;;;;;;5117518;27;20028;-82
2022/12/30 13:33:11;;;;;;;7.57;2.03;;;8.80;99.90;;;;;;5127986;27;20062;-80
2022/12/30 13:35:43;;;;;;;7.28;1.88;;;8.80;99.90;;;;;;5106589;27;20042;-83
2022/12/30 13:38:23;;;;;;;10.00;2.40;;;8.80;99.90;;;;;;5088810;27;20039;-83
2022/12/30 13:41:24;;;;;;;10.10;2.50;;;8.80;99.90;;;;;;5129516;27;20390;-81
2022/12/30 13:43:57;;;;;;;7.95;2.13;;;8.90;99.90;;;;;;5109009;27;20027;-83
2022/12/30 13:46:29;;;;;;;7.43;2.20;;;8.90;99.90;;;;;;5103680;27;20039;-82
2022/12/30 13:48:57;;;;;;;6.47;1.92;;;8.90;99.90;;;;;;5090864;27;20035;-82
2022/12/30 13:51:25;;;;;;;7.07;2.03;;;8.90;99.90;;;;;;5107674;27;20055;-81
2022/12/30 13:53:56;;;;;;;7.00;1.85;;;8.90;99.90;;;;;;5104692;27;20047;-82
2022/12/30 13:56:37;;;;;;;6.20;1.60;;;9.00;99.90;;;;;;5091944;27;20035;-83
2022/12/30 13:59:04;;;;;;;7.43;1.92;;;9.00;99.90;;;;;;5096362;27;20043;-84
2022/12/30 14:01:39;;;;;;;7.53;2.03;;;9.00;99.90;;;;;;5126489;27;20039;-82
2022/12/30 14:04:10;;;;;;;6.38;2.00;;;9.10;99.90;;;;;;5107847;27;20039;-83
2022/12/30 14:06:43;;;;;;;6.63;1.73;;;9.10;99.90;;;;;;5104448;27;20039;-83
2022/12/30 14:09:15;;;;;;;8.38;2.13;;;9.10;99.90;;;;;;5109163;27;20039;-84
2022/12/30 14:12:03;;;;;;;7.75;1.90;;;9.10;99.90;;;;;;5126477;27;20126;-84